Argent Gerbera — V7UC4 — position and weather

sailwx.info

Track history (hours):
 
Tides and Currents Weather Stations Pressure Air Temp Water Temp Dewpoint Dewpoint Depression Visibility Wind Speed Wind Dir Waves Ship Positions

Argent Gerbera

Last reported at 2018-Jul-17 05:26 UTC. Time now 2018-Jul-17 05:55 UTC.
Position N 31°58' E 120°26'.

Length 175 m; draft 10.5 m.

Type: Ship (hazmat cat B). MMSI: 538003929.

Date/timePositionNaut miles runAvg speedWind from/ knotsBaromVisibWave heightAir tempDewpointWater temp
2018-Jul-17 05:26N 31°58' E 120°26'0 0.0
2018-Jul-17 04:59N 31°58' E 120°26'0 0.0
2018-Jul-17 04:08N 31°58' E 120°26'0 0.0
2018-Jul-17 03:56N 31°58' E 120°26'0 0.0
2018-Jul-17 03:26N 31°58' E 120°26'0 0.0
2018-Jul-17 02:56N 31°58' E 120°26'0 0.0
2018-Jul-17 02:02N 31°58' E 120°26'0 0.0
2018-Jul-17 01:56N 31°58' E 120°26'0 0.0
2018-Jul-17 01:29N 31°58' E 120°26'0 0.0
2018-Jul-16 23:20N 31°58' E 120°26'0 0.0
2018-Jul-16 22:56N 31°58' E 120°26'0 0.0
2018-Jul-16 22:08N 31°58' E 120°26'0 0.0
2018-Jul-16 21:41N 31°58' E 120°26'0 0.0
2018-Jul-16 21:08N 31°58' E 120°26'0 0.0
2018-Jul-16 20:38N 31°58' E 120°26'0 0.0
2018-Jul-16 19:14N 31°58' E 120°26'0 0.0
2018-Jul-16 18:56N 31°58' E 120°26'0 0.0
2018-Jul-16 18:20N 31°58' E 120°26'0 0.0
2018-Jul-16 17:44N 31°58' E 120°26'0 0.0
2018-Jul-16 17:26N 31°58' E 120°26'0 0.0
2018-Jul-16 16:59N 31°58' E 120°26'0 0.0
2018-Jul-16 16:26N 31°58' E 120°26'0 0.0
2018-Jul-16 15:59N 31°58' E 120°26'0 0.0
2018-Jul-16 15:29N 31°58' E 120°26'0 0.0
2018-Jul-16 14:56N 31°58' E 120°26'0 0.0
2018-Jul-16 13:32N 31°58' E 120°26'0 0.0
2018-Jul-16 13:20N 31°58' E 120°26'0 0.0
2018-Jul-16 12:50N 31°58' E 120°26'0 0.0
2018-Jul-16 12:26N 31°58' E 120°26'0 0.0
2018-Jul-16 11:59N 31°58' E 120°26'2 5.1
2018-Jul-16 11:30N 32°01' E 120°27'2 4.5
2018-Jul-16 10:59N 32°02' E 120°29'3 6.3
2018-Jul-16 10:31N 32°01' E 120°32'104 3.3
2018-Jul-15 03:06N 31°07' E 122°16'112.4
2018-Jul-15 02:59N 31°07' E 122°18'18 1.7
2018-Jul-14 16:05N 31°08' E 122°39'  
2018-Jul-08 06:37N 23°41' E 118°21'  
Track history (hours):
 
Tides and Currents Weather Stations Pressure Air Temp Water Temp Dewpoint Dewpoint Depression Visibility Wind Speed Wind Dir Waves Ship Positions

Argent Gerbera

Last reported at 2018-Jul-17 05:26 UTC. Time now 2018-Jul-17 05:55 UTC.
Position N 31°58' E 120°26'.

Length 175 m; draft 10.5 m.

Type: Ship (hazmat cat B). MMSI: 538003929.

Date/timePositionNaut miles runAvg speedWind from/ knotsBaromVisibWave heightAir tempDewpointWater temp
2018-Jul-17 05:26N 31°58' E 120°26'0 0.0
2018-Jul-17 04:59N 31°58' E 120°26'0 0.0
2018-Jul-17 04:08N 31°58' E 120°26'0 0.0
2018-Jul-17 03:56N 31°58' E 120°26'0 0.0
2018-Jul-17 03:26N 31°58' E 120°26'0 0.0
2018-Jul-17 02:56N 31°58' E 120°26'0 0.0
2018-Jul-17 02:02N 31°58' E 120°26'0 0.0
2018-Jul-17 01:56N 31°58' E 120°26'0 0.0
2018-Jul-17 01:29N 31°58' E 120°26'0 0.0
2018-Jul-16 23:20N 31°58' E 120°26'0 0.0
2018-Jul-16 22:56N 31°58' E 120°26'0 0.0
2018-Jul-16 22:08N 31°58' E 120°26'0 0.0
2018-Jul-16 21:41N 31°58' E 120°26'0 0.0
2018-Jul-16 21:08N 31°58' E 120°26'0 0.0
2018-Jul-16 20:38N 31°58' E 120°26'0 0.0
2018-Jul-16 19:14N 31°58' E 120°26'0 0.0
2018-Jul-16 18:56N 31°58' E 120°26'0 0.0
2018-Jul-16 18:20N 31°58' E 120°26'0 0.0
2018-Jul-16 17:44N 31°58' E 120°26'0 0.0
2018-Jul-16 17:26N 31°58' E 120°26'0 0.0
2018-Jul-16 16:59N 31°58' E 120°26'0 0.0
2018-Jul-16 16:26N 31°58' E 120°26'0 0.0
2018-Jul-16 15:59N 31°58' E 120°26'0 0.0
2018-Jul-16 15:29N 31°58' E 120°26'0 0.0
2018-Jul-16 14:56N 31°58' E 120°26'0 0.0
2018-Jul-16 13:32N 31°58' E 120°26'0 0.0
2018-Jul-16 13:20N 31°58' E 120°26'0 0.0
2018-Jul-16 12:50N 31°58' E 120°26'0 0.0
2018-Jul-16 12:26N 31°58' E 120°26'0 0.0
2018-Jul-16 11:59N 31°58' E 120°26'2 5.1
2018-Jul-16 11:30N 32°01' E 120°27'2 4.5
2018-Jul-16 10:59N 32°02' E 120°29'3 6.3
2018-Jul-16 10:31N 32°01' E 120°32'104 3.3
2018-Jul-15 03:06N 31°07' E 122°16'112.4
2018-Jul-15 02:59N 31°07' E 122°18'18 1.7
2018-Jul-14 16:05N 31°08' E 122°39'  
2018-Jul-08 06:37N 23°41' E 118°21'  

Dump ship's entire track history